Time;durP1;ratioP1;P1;durP2;ratioP2;P2;SDS_P1;SDS_P2;PMS_P1;PMS_P2;Temp;Humidity;BMP_temperature;BMP_pressure;BME280_temperature;BME280_humidity;BME280_pressure;Samples;Min_cycle;Max_cycle;Signal;HPM_P1;HPM_P2
2021/12/17 00:04:37;;;;;;;0.50;0.50;;;;;;;;;;4963687;28;20216;-66
2021/12/17 00:07:11;;;;;;;0.50;0.50;;;;;;;;;;4962762;28;20597;-65
2021/12/17 00:09:37;;;;;;;0.50;0.50;;;;;;;;;;4962795;28;20184;-63
2021/12/17 00:12:04;;;;;;;0.50;0.50;;;;;;;;;;4961514;28;20260;-64
2021/12/17 00:14:36;;;;;;;0.50;0.50;;;;;;;;;;4961861;28;20257;-65
2021/12/17 00:17:05;;;;;;;0.40;0.40;;;;;;;;;;4962178;28;20221;-64
2021/12/17 00:49:28;;;;;;;0.50;0.50;;;;;;;;;;4967842;28;20241;-65
2021/12/17 00:54:31;;;;;;;0.50;0.50;;;;;;;;;;4965836;28;20198;-64
2021/12/17 00:56:58;;;;;;;0.50;0.50;;;;;;;;;;4966105;28;20431;-66
2021/12/17 00:59:24;;;;;;;0.50;0.50;;;;;;;;;;4966705;28;20265;-65
2021/12/17 01:01:51;;;;;;;0.50;0.50;;;;;;;;;;4964326;28;20202;-65
2021/12/17 01:04:17;;;;;;;0.60;0.60;;;;;;;;;;4965604;28;20281;-65
2021/12/17 01:06:43;;;;;;;0.40;0.40;;;;;;;;;;4966635;28;20178;-65
2021/12/17 01:09:10;;;;;;;0.50;0.50;;;;;;;;;;4964756;28;20182;-63
2021/12/17 01:11:36;;;;;;;0.50;0.50;;;;;;;;;;4965252;28;20178;-64
2021/12/17 01:14:03;;;;;;;0.50;0.50;;;;;;;;;;4966491;28;20685;-62
2021/12/17 01:16:30;;;;;;;0.50;0.50;;;;;;;;;;4964601;28;20318;-64
2021/12/17 01:19:28;;;;;;;0.50;0.50;;;;;;;;;;4965204;28;20177;-65
2021/12/17 01:21:59;;;;;;;0.50;0.50;;;;;;;;;;4963075;28;20214;-65
2021/12/17 01:24:37;;;;;;;0.50;0.50;;;;;;;;;;4964604;28;20346;-65
2021/12/17 01:35:35;;;;;;;0.55;0.55;;;;;;;;;;4965332;28;20262;-63
2021/12/17 01:41:10;;;;;;;0.50;0.50;;;;;;;;;;4966222;28;20221;-63
2021/12/17 01:43:41;;;;;;;0.45;0.45;;;;;;;;;;4966038;28;20189;-64
2021/12/17 01:46:08;;;;;;;0.60;0.60;;;;;;;;;;4966360;28;20186;-66
2021/12/17 01:48:53;;;;;;;0.50;0.50;;;;;;;;;;4964583;28;20179;-64
2021/12/17 01:56:56;;;;;;;0.40;0.40;;;;;;;;;;4966192;28;20189;-65
2021/12/17 01:59:33;;;;;;;0.50;0.50;;;;;;;;;;4965560;28;20182;-64
2021/12/17 02:02:03;;;;;;;0.50;0.50;;;;;;;;;;4964702;28;20697;-66
2021/12/17 02:04:30;;;;;;;0.50;0.50;;;;;;;;;;4964289;28;20214;-64
2021/12/17 02:06:57;;;;;;;0.50;0.50;;;;;;;;;;4965793;28;20174;-64
2021/12/17 02:09:57;;;;;;;0.50;0.50;;;;;;;;;;4965345;28;20180;-62
2021/12/17 02:12:31;;;;;;;0.60;0.60;;;;;;;;;;4965041;28;20741;-65
2021/12/17 02:28:42;;;;;;;0.50;0.50;;;;;;;;;;4964573;28;20265;-64
2021/12/17 02:31:36;;;;;;;0.50;0.50;;;;;;;;;;4963754;28;20535;-63
2021/12/17 02:34:09;;;;;;;0.40;0.40;;;;;;;;;;4964095;28;20191;-64
2021/12/17 02:36:36;;;;;;;0.40;0.40;;;;;;;;;;4965157;28;20187;-66
2021/12/17 02:39:53;;;;;;;0.50;0.50;;;;;;;;;;4964037;28;20265;-63
2021/12/17 02:47:19;;;;;;;0.40;0.40;;;;;;;;;;4964283;28;20186;-63
2021/12/17 02:49:46;;;;;;;0.50;0.50;;;;;;;;;;4961176;28;20265;-65
2021/12/17 02:52:12;;;;;;;0.40;0.40;;;;;;;;;;4962479;28;20194;-64
2021/12/17 02:54:39;;;;;;;0.40;0.40;;;;;;;;;;4963888;28;20221;-65
2021/12/17 02:57:05;;;;;;;0.50;0.50;;;;;;;;;;4964517;28;20179;-65
2021/12/17 02:59:35;;;;;;;0.40;0.40;;;;;;;;;;4964278;28;20210;-65
2021/12/17 03:02:03;;;;;;;0.50;0.50;;;;;;;;;;4962646;28;20201;-66
2021/12/17 03:04:30;;;;;;;0.50;0.50;;;;;;;;;;4964651;28;20210;-62
2021/12/17 03:06:57;;;;;;;0.50;0.50;;;;;;;;;;4963560;28;20178;-66
2021/12/17 03:09:38;;;;;;;0.60;0.60;;;;;;;;;;4963250;28;20254;-65
2021/12/17 03:12:17;;;;;;;0.60;0.60;;;;;;;;;;4962468;28;20260;-65
2021/12/17 03:14:51;;;;;;;0.40;0.40;;;;;;;;;;4964046;28;20199;-65
2021/12/17 03:17:31;;;;;;;0.45;0.45;;;;;;;;;;4963279;28;20186;-63
2021/12/17 03:25:25;;;;;;;0.40;0.40;;;;;;;;;;4979403;28;20426;-64
2021/12/17 03:27:51;;;;;;;0.50;0.50;;;;;;;;;;4967984;28;20269;-64
2021/12/17 03:30:17;;;;;;;0.50;0.50;;;;;;;;;;4962395;28;20232;-65
2021/12/17 03:32:43;;;;;;;0.50;0.50;;;;;;;;;;4962973;28;20443;-63
2021/12/17 03:35:08;;;;;;;0.50;0.50;;;;;;;;;;4964177;28;20440;-64
2021/12/17 03:37:34;;;;;;;0.40;0.40;;;;;;;;;;4962560;28;20986;-64
2021/12/17 03:40:00;;;;;;;0.50;0.50;;;;;;;;;;4962919;28;20453;-63
2021/12/17 03:42:26;;;;;;;0.50;0.50;;;;;;;;;;4963615;28;20453;-65
2021/12/17 03:44:52;;;;;;;0.40;0.40;;;;;;;;;;4962135;28;20499;-65
2021/12/17 03:47:18;;;;;;;0.40;0.40;;;;;;;;;;4963511;28;20403;-64
2021/12/17 03:49:45;;;;;;;0.40;0.40;;;;;;;;;;4963828;28;20410;-63
2021/12/17 03:52:16;;;;;;;0.50;0.50;;;;;;;;;;4961286;28;20407;-64
2021/12/17 03:54:42;;;;;;;0.50;0.50;;;;;;;;;;4962804;28;20202;-64
2021/12/17 03:57:11;;;;;;;0.60;0.60;;;;;;;;;;4964264;28;20233;-65
2021/12/17 03:59:37;;;;;;;0.40;0.40;;;;;;;;;;4964760;28;20171;-62
2021/12/17 04:02:03;;;;;;;0.40;0.40;;;;;;;;;;4961897;28;20692;-63
2021/12/17 04:04:29;;;;;;;0.40;0.40;;;;;;;;;;4962248;28;20301;-64
2021/12/17 04:06:55;;;;;;;0.50;0.50;;;;;;;;;;4962706;28;20735;-63
2021/12/17 04:09:23;;;;;;;0.50;0.50;;;;;;;;;;4982503;23;20490;-64
2021/12/17 04:11:49;;;;;;;0.40;0.40;;;;;;;;;;4952689;28;20414;-64
2021/12/17 04:14:15;;;;;;;0.50;0.50;;;;;;;;;;4953368;28;20179;-64
2021/12/17 04:16:41;;;;;;;0.50;0.50;;;;;;;;;;4953473;28;20647;-64
2021/12/17 04:19:07;;;;;;;0.60;0.60;;;;;;;;;;4953559;28;20208;-64
2021/12/17 04:21:33;;;;;;;0.40;0.40;;;;;;;;;;4952550;28;20940;-64
2021/12/17 04:23:59;;;;;;;0.40;0.40;;;;;;;;;;4953308;28;20514;-65
2021/12/17 04:26:25;;;;;;;0.50;0.50;;;;;;;;;;4952167;29;20418;-65
2021/12/17 04:28:53;;;;;;;0.40;0.40;;;;;;;;;;4953438;28;20175;-65
2021/12/17 04:31:20;;;;;;;0.50;0.50;;;;;;;;;;4952686;28;20199;-64
2021/12/17 04:33:46;;;;;;;0.40;0.40;;;;;;;;;;4953180;28;20183;-64
2021/12/17 04:36:16;;;;;;;0.50;0.50;;;;;;;;;;4953268;28;20318;-64
2021/12/17 04:38:42;;;;;;;0.57;0.57;;;;;;;;;;4953116;28;20253;-64
2021/12/17 04:44:00;;;;;;;0.40;0.40;;;;;;;;;;4953235;28;20691;-64
2021/12/17 04:57:23;;;;;;;0.40;0.40;;;;;;;;;;4953363;29;20242;-64
2021/12/17 04:59:49;;;;;;;0.50;0.50;;;;;;;;;;4952953;28;20226;-64
2021/12/17 05:02:16;;;;;;;0.50;0.50;;;;;;;;;;4952206;28;20264;-64
2021/12/17 05:04:43;;;;;;;0.50;0.50;;;;;;;;;;4952054;28;20229;-64
2021/12/17 05:07:12;;;;;;;0.50;0.50;;;;;;;;;;4956320;28;20316;-64
2021/12/17 05:09:51;;;;;;;0.50;0.50;;;;;;;;;;4956150;28;20199;-65
2021/12/17 05:20:49;;;;;;;0.50;0.50;;;;;;;;;;4955450;28;20248;-64
2021/12/17 05:23:16;;;;;;;0.50;0.50;;;;;;;;;;4956234;28;20182;-64
2021/12/17 05:25:42;;;;;;;0.50;0.50;;;;;;;;;;4955958;28;20202;-64
2021/12/17 05:28:08;;;;;;;0.40;0.40;;;;;;;;;;4955797;28;20168;-64
2021/12/17 05:30:35;;;;;;;0.50;0.50;;;;;;;;;;4955005;28;20199;-64
2021/12/17 05:33:04;;;;;;;0.40;0.40;;;;;;;;;;4955868;28;20183;-65
2021/12/17 05:35:30;;;;;;;0.50;0.50;;;;;;;;;;4955714;28;20189;-64
2021/12/17 05:37:56;;;;;;;0.40;0.40;;;;;;;;;;4955817;28;20186;-64
2021/12/17 05:40:22;;;;;;;0.50;0.50;;;;;;;;;;4954995;28;21038;-65
2021/12/17 05:42:50;;;;;;;0.60;0.60;;;;;;;;;;4955522;28;20545;-65
2021/12/17 05:45:22;;;;;;;0.50;0.50;;;;;;;;;;4955473;28;20168;-65
2021/12/17 05:47:49;;;;;;;0.50;0.50;;;;;;;;;;4955627;28;20528;-65
2021/12/17 05:50:15;;;;;;;0.50;0.50;;;;;;;;;;4954909;28;20206;-64
2021/12/17 05:52:41;;;;;;;0.50;0.50;;;;;;;;;;4955501;28;20184;-65
2021/12/17 05:55:07;;;;;;;0.50;0.50;;;;;;;;;;4955394;28;20190;-64
2021/12/17 05:57:33;;;;;;;0.47;0.47;;;;;;;;;;4955396;28;20410;-64
2021/12/17 05:59:59;;;;;;;0.40;0.40;;;;;;;;;;4953882;28;20671;-65
2021/12/17 06:02:25;;;;;;;0.50;0.50;;;;;;;;;;4954736;28;20571;-64
2021/12/17 06:04:51;;;;;;;0.50;0.50;;;;;;;;;;4955182;28;20834;-64
2021/12/17 06:07:27;;;;;;;0.50;0.50;;;;;;;;;;4955265;28;20966;-65
2021/12/17 06:09:54;;;;;;;0.40;0.40;;;;;;;;;;4954933;28;20871;-64
2021/12/17 06:12:20;;;;;;;0.50;0.50;;;;;;;;;;4954448;28;20184;-65
2021/12/17 06:14:46;;;;;;;0.40;0.40;;;;;;;;;;4955267;28;20230;-65
2021/12/17 06:17:12;;;;;;;0.50;0.50;;;;;;;;;;4955042;28;20418;-65
2021/12/17 06:19:38;;;;;;;0.50;0.50;;;;;;;;;;4954965;28;20212;-65
2021/12/17 06:22:04;;;;;;;0.50;0.50;;;;;;;;;;4954112;28;20459;-65
2021/12/17 06:24:30;;;;;;;0.50;0.50;;;;;;;;;;4954873;28;20476;-65
2021/12/17 06:26:56;;;;;;;0.50;0.50;;;;;;;;;;4954853;28;20180;-65
2021/12/17 06:29:22;;;;;;;0.60;0.60;;;;;;;;;;4954751;28;20447;-65
2021/12/17 06:31:47;;;;;;;0.60;0.60;;;;;;;;;;4954137;28;20505;-65
2021/12/17 06:34:13;;;;;;;0.50;0.50;;;;;;;;;;4954717;28;20477;-65
2021/12/17 06:36:39;;;;;;;0.50;0.50;;;;;;;;;;4954633;28;20422;-65
2021/12/17 06:39:05;;;;;;;0.50;0.50;;;;;;;;;;4953147;28;20435;-65
2021/12/17 06:41:31;;;;;;;0.50;0.50;;;;;;;;;;4953971;28;20560;-65
2021/12/17 06:43:59;;;;;;;0.50;0.50;;;;;;;;;;4954470;28;20417;-65
2021/12/17 06:48:57;;;;;;;0.60;0.60;;;;;;;;;;4954386;28;20189;-65
2021/12/17 07:00:12;;;;;;;0.50;0.50;;;;;;;;;;4954665;28;20226;-65
2021/12/17 07:30:19;;;;;;;0.40;0.40;;;;;;;;;;4951960;28;20190;-64
2021/12/17 07:34:31;;;;;;;0.40;0.40;;;;;;;;;;4952978;28;20182;-64
2021/12/17 07:38:37;;;;;;;0.40;0.40;;;;;;;;;;4953279;28;20176;-64
2021/12/17 07:39:43;;;;;;;0.40;0.40;;;;;;;;;;4954191;28;20213;-65
2021/12/17 07:42:10;;;;;;;0.50;0.50;;;;;;;;;;4953404;28;20246;-65
2021/12/17 07:44:36;;;;;;;0.50;0.50;;;;;;;;;;4953701;28;20170;-65
2021/12/17 07:47:02;;;;;;;0.52;0.52;;;;;;;;;;4953792;28;20263;-65
2021/12/17 07:49:28;;;;;;;0.50;0.50;;;;;;;;;;4953548;28;20201;-65
2021/12/17 07:51:54;;;;;;;0.50;0.50;;;;;;;;;;4953158;28;20555;-65
2021/12/17 07:54:20;;;;;;;0.50;0.50;;;;;;;;;;4953486;28;20414;-65
2021/12/17 07:56:46;;;;;;;0.40;0.40;;;;;;;;;;4953662;28;20209;-65
2021/12/17 07:59:13;;;;;;;0.40;0.40;;;;;;;;;;4953470;28;20199;-65
2021/12/17 08:01:39;;;;;;;0.50;0.50;;;;;;;;;;4952776;28;20866;-65
2021/12/17 08:04:06;;;;;;;0.50;0.50;;;;;;;;;;4953441;28;20273;-65
2021/12/17 08:06:33;;;;;;;0.40;0.40;;;;;;;;;;4953531;28;20181;-65
2021/12/17 08:08:59;;;;;;;0.50;0.50;;;;;;;;;;4953357;28;20186;-65
2021/12/17 08:11:25;;;;;;;0.50;0.50;;;;;;;;;;4952904;28;20293;-65
2021/12/17 08:13:53;;;;;;;0.50;0.50;;;;;;;;;;4953331;28;20418;-65
2021/12/17 08:16:34;;;;;;;0.40;0.40;;;;;;;;;;4953327;28;20171;-65
2021/12/17 08:24:47;;;;;;;0.50;0.50;;;;;;;;;;4949770;29;20194;-66
2021/12/17 08:29:54;;;;;;;0.50;0.50;;;;;;;;;;4953232;28;20292;-65
2021/12/17 08:32:20;;;;;;;0.50;0.50;;;;;;;;;;4952566;28;20175;-65
2021/12/17 08:34:46;;;;;;;0.40;0.40;;;;;;;;;;4953277;28;20251;-65
2021/12/17 08:37:12;;;;;;;0.50;0.50;;;;;;;;;;4951763;28;20218;-65
2021/12/17 08:39:38;;;;;;;0.50;0.50;;;;;;;;;;4953464;28;20207;-65
2021/12/17 08:42:05;;;;;;;0.50;0.50;;;;;;;;;;4955967;28;20219;-65
2021/12/17 08:44:31;;;;;;;0.50;0.50;;;;;;;;;;4956311;28;20187;-65
2021/12/17 08:46:57;;;;;;;0.60;0.60;;;;;;;;;;4956728;28;20178;-65
2021/12/17 08:49:23;;;;;;;0.50;0.50;;;;;;;;;;4956529;28;20455;-66
2021/12/17 08:51:49;;;;;;;0.40;0.40;;;;;;;;;;4955799;28;20417;-65
2021/12/17 08:54:15;;;;;;;0.40;0.40;;;;;;;;;;4956433;28;20442;-65
2021/12/17 08:56:43;;;;;;;0.50;0.50;;;;;;;;;;4956387;28;20550;-64
2021/12/17 08:59:09;;;;;;;0.50;0.50;;;;;;;;;;4956551;28;20703;-65
2021/12/17 09:01:35;;;;;;;0.50;0.50;;;;;;;;;;4955819;28;20203;-65
2021/12/17 09:04:02;;;;;;;0.50;0.50;;;;;;;;;;4956423;28;20186;-64
2021/12/17 09:06:28;;;;;;;0.50;0.50;;;;;;;;;;4956177;28;20176;-65
2021/12/17 09:08:55;;;;;;;0.50;0.50;;;;;;;;;;4956118;28;20679;-65
2021/12/17 09:11:25;;;;;;;0.60;0.60;;;;;;;;;;4955574;28;20197;-65
2021/12/17 09:13:51;;;;;;;0.50;0.50;;;;;;;;;;4956207;28;20234;-65
2021/12/17 09:16:20;;;;;;;0.43;0.43;;;;;;;;;;4955940;28;20190;-67
2021/12/17 09:18:47;;;;;;;0.60;0.60;;;;;;;;;;4956031;28;20623;-65
2021/12/17 09:21:13;;;;;;;0.50;0.50;;;;;;;;;;4955024;28;20241;-65
2021/12/17 09:23:39;;;;;;;0.50;0.50;;;;;;;;;;4956056;28;20179;-65
2021/12/17 09:26:05;;;;;;;0.60;0.60;;;;;;;;;;4955922;28;20950;-65
2021/12/17 09:28:31;;;;;;;0.50;0.50;;;;;;;;;;4956111;28;20438;-65
2021/12/17 09:30:58;;;;;;;0.50;0.50;;;;;;;;;;4955235;28;20803;-65
2021/12/17 09:33:25;;;;;;;0.50;0.50;;;;;;;;;;4955422;28;20597;-65
2021/12/17 09:35:51;;;;;;;0.50;0.50;;;;;;;;;;4955832;28;20174;-65
2021/12/17 09:38:17;;;;;;;0.50;0.50;;;;;;;;;;4955804;28;20182;-65
2021/12/17 09:40:43;;;;;;;0.50;0.50;;;;;;;;;;4954865;28;20198;-65
2021/12/17 09:43:10;;;;;;;0.50;0.50;;;;;;;;;;4955609;28;20210;-65
2021/12/17 09:45:36;;;;;;;0.60;0.60;;;;;;;;;;4955260;28;20178;-65
2021/12/17 09:48:03;;;;;;;0.50;0.50;;;;;;;;;;4955537;28;20262;-65
2021/12/17 09:50:29;;;;;;;0.50;0.50;;;;;;;;;;4953659;28;20207;-65
2021/12/17 09:52:55;;;;;;;0.50;0.50;;;;;;;;;;4955390;28;20189;-65
2021/12/17 09:55:21;;;;;;;0.50;0.50;;;;;;;;;;4955310;28;20180;-65
2021/12/17 09:57:47;;;;;;;0.50;0.50;;;;;;;;;;4954944;28;20187;-65
2021/12/17 10:00:16;;;;;;;0.50;0.50;;;;;;;;;;4954621;28;20207;-65
2021/12/17 10:02:45;;;;;;;0.50;0.50;;;;;;;;;;4955160;28;20878;-65
2021/12/17 10:05:13;;;;;;;0.50;0.50;;;;;;;;;;4955466;28;20178;-65
2021/12/17 10:07:41;;;;;;;0.40;0.40;;;;;;;;;;4955291;28;20186;-65
2021/12/17 10:10:07;;;;;;;0.50;0.50;;;;;;;;;;4980512;22;20742;-64
2021/12/17 10:12:35;;;;;;;0.40;0.40;;;;;;;;;;4974112;28;20556;-64
2021/12/17 10:15:02;;;;;;;0.50;0.50;;;;;;;;;;4974250;28;20241;-64
2021/12/17 10:17:28;;;;;;;0.50;0.50;;;;;;;;;;4973105;28;20260;-64
2021/12/17 10:19:56;;;;;;;0.50;0.50;;;;;;;;;;4974138;28;20708;-62
2021/12/17 10:22:25;;;;;;;0.50;0.50;;;;;;;;;;4973241;28;20210;-64
2021/12/17 10:24:57;;;;;;;0.50;0.50;;;;;;;;;;4974060;28;20201;-64
2021/12/17 10:27:25;;;;;;;0.50;0.50;;;;;;;;;;4974028;28;20546;-62
2021/12/17 10:29:51;;;;;;;0.50;0.50;;;;;;;;;;4974076;28;20245;-65
2021/12/17 10:32:20;;;;;;;0.50;0.50;;;;;;;;;;4973471;28;20189;-64
2021/12/17 10:35:07;;;;;;;0.50;0.50;;;;;;;;;;4973691;28;20174;-64
2021/12/17 10:37:34;;;;;;;0.40;0.40;;;;;;;;;;4973861;28;20205;-64
2021/12/17 10:40:00;;;;;;;0.40;0.40;;;;;;;;;;4973707;28;20570;-64
2021/12/17 10:42:35;;;;;;;0.50;0.50;;;;;;;;;;4973145;28;20198;-64
2021/12/17 10:45:05;;;;;;;0.50;0.50;;;;;;;;;;4973781;28;20204;-65
2021/12/17 10:47:34;;;;;;;0.60;0.60;;;;;;;;;;4973716;28;20257;-65
2021/12/17 10:50:03;;;;;;;0.40;0.40;;;;;;;;;;4973608;28;20535;-64
2021/12/17 10:52:38;;;;;;;0.60;0.60;;;;;;;;;;4972089;28;20247;-64
2021/12/17 10:55:16;;;;;;;0.50;0.50;;;;;;;;;;4973555;28;20685;-65
2021/12/17 10:57:43;;;;;;;0.50;0.50;;;;;;;;;;4973640;28;20178;-64
2021/12/17 11:00:09;;;;;;;0.60;0.60;;;;;;;;;;4972664;28;20190;-64
2021/12/17 11:02:37;;;;;;;0.40;0.40;;;;;;;;;;4971328;28;20210;-64
2021/12/17 11:05:15;;;;;;;0.50;0.50;;;;;;;;;;4969466;28;20271;-65
2021/12/17 11:07:45;;;;;;;0.50;0.50;;;;;;;;;;4954032;28;20202;-64
2021/12/17 11:10:11;;;;;;;0.50;0.50;;;;;;;;;;4953319;28;20560;-65
2021/12/17 11:12:38;;;;;;;0.50;0.50;;;;;;;;;;4953723;28;20647;-64
2021/12/17 11:15:07;;;;;;;0.40;0.40;;;;;;;;;;4952681;28;20730;-65
2021/12/17 11:17:33;;;;;;;0.50;0.50;;;;;;;;;;4954034;28;20648;-64
2021/12/17 11:20:01;;;;;;;0.50;0.50;;;;;;;;;;4952502;28;20258;-62
2021/12/17 11:22:29;;;;;;;0.50;0.50;;;;;;;;;;4953858;28;20609;-64
2021/12/17 11:24:56;;;;;;;0.50;0.50;;;;;;;;;;4953883;28;20595;-64
2021/12/17 11:27:22;;;;;;;0.40;0.40;;;;;;;;;;4953861;28;20175;-63
2021/12/17 11:29:49;;;;;;;0.50;0.50;;;;;;;;;;4953764;28;20199;-64
2021/12/17 11:32:18;;;;;;;0.50;0.50;;;;;;;;;;4953235;28;20424;-65
2021/12/17 11:34:44;;;;;;;0.40;0.40;;;;;;;;;;4953454;28;20180;-65
2021/12/17 11:37:10;;;;;;;0.50;0.50;;;;;;;;;;4953633;28;20292;-64
2021/12/17 11:39:41;;;;;;;0.40;0.40;;;;;;;;;;4953274;28;20522;-64
2021/12/17 11:42:24;;;;;;;0.40;0.40;;;;;;;;;;4952714;28;20290;-65
2021/12/17 11:45:22;;;;;;;0.40;0.40;;;;;;;;;;4953628;28;20171;-64
2021/12/17 11:47:37;;;;;;;0.40;0.40;;;;;;;;;;4953341;28;20254;-65
2021/12/17 11:50:08;;;;;;;0.40;0.40;;;;;;;;;;4953050;28;20215;-65
2021/12/17 11:52:34;;;;;;;0.40;0.40;;;;;;;;;;4953429;28;20415;-65
2021/12/17 11:55:18;;;;;;;0.40;0.40;;;;;;;;;;4953501;28;20392;-65
2021/12/17 11:57:44;;;;;;;0.33;0.33;;;;;;;;;;4953485;28;20421;-65
2021/12/17 12:00:14;;;;;;;0.30;0.30;;;;;;;;;;4952613;28;20429;-65
2021/12/17 12:02:47;;;;;;;0.30;0.30;;;;;;;;;;4953521;28;20503;-65
2021/12/17 12:05:32;;;;;;;0.40;0.40;;;;;;;;;;4953133;28;20423;-65
2021/12/17 12:08:18;;;;;;;0.40;0.40;;;;;;;;;;4953321;28;20494;-65
2021/12/17 12:11:02;;;;;;;0.40;0.40;;;;;;;;;;4952540;28;20450;-65
2021/12/17 12:13:35;;;;;;;0.30;0.30;;;;;;;;;;4953414;28;20177;-65
2021/12/17 12:16:02;;;;;;;0.40;0.40;;;;;;;;;;4957235;28;20408;-65
2021/12/17 12:18:38;;;;;;;0.30;0.30;;;;;;;;;;4957243;28;20504;-65
2021/12/17 12:21:04;;;;;;;0.40;0.40;;;;;;;;;;4956438;28;20430;-65
2021/12/17 12:23:30;;;;;;;0.40;0.40;;;;;;;;;;4957200;28;20736;-65
2021/12/17 12:26:08;;;;;;;0.30;0.30;;;;;;;;;;4957065;28;20430;-66
2021/12/17 12:28:49;;;;;;;0.30;0.30;;;;;;;;;;4957235;28;20387;-65
2021/12/17 12:31:18;;;;;;;0.30;0.30;;;;;;;;;;4956415;28;20480;-65
2021/12/17 12:36:47;;;;;;;0.30;0.30;;;;;;;;;;4956290;28;20206;-65
2021/12/17 12:39:25;;;;;;;0.30;0.30;;;;;;;;;;4956860;28;20503;-65
2021/12/17 12:42:00;;;;;;;0.30;0.30;;;;;;;;;;4956081;28;20804;-65
2021/12/17 12:44:38;;;;;;;0.30;0.30;;;;;;;;;;4957021;28;20410;-65
2021/12/17 12:47:04;;;;;;;0.40;0.40;;;;;;;;;;4956857;28;20433;-65
2021/12/17 12:49:49;;;;;;;0.30;0.30;;;;;;;;;;4957046;28;20425;-65
2021/12/17 12:52:24;;;;;;;0.40;0.40;;;;;;;;;;4956259;28;20521;-65
2021/12/17 12:54:51;;;;;;;0.40;0.40;;;;;;;;;;4956991;28;20414;-65
2021/12/17 12:57:24;;;;;;;0.40;0.40;;;;;;;;;;4955534;28;20918;-64
2021/12/17 12:59:52;;;;;;;0.40;0.40;;;;;;;;;;4957138;28;20443;-65
2021/12/17 13:02:18;;;;;;;0.30;0.30;;;;;;;;;;4957637;28;20507;-64
2021/12/17 13:04:45;;;;;;;0.40;0.40;;;;;;;;;;4955270;28;20434;-65
2021/12/17 13:07:14;;;;;;;0.40;0.40;;;;;;;;;;4956600;28;20179;-64
2021/12/17 13:09:44;;;;;;;0.40;0.40;;;;;;;;;;4954842;28;20299;-64
2021/12/17 13:12:10;;;;;;;0.40;0.40;;;;;;;;;;4955931;28;20176;-65
2021/12/17 13:14:45;;;;;;;0.40;0.40;;;;;;;;;;4956229;28;20183;-64
2021/12/17 13:17:40;;;;;;;0.40;0.40;;;;;;;;;;4956131;28;20176;-64
2021/12/17 13:23:00;;;;;;;0.40;0.40;;;;;;;;;;4962896;28;20265;-64
2021/12/17 13:25:27;;;;;;;0.40;0.40;;;;;;;;;;4955397;28;20182;-64
2021/12/17 13:27:55;;;;;;;0.40;0.40;;;;;;;;;;4954912;28;20230;-65
2021/12/17 13:30:27;;;;;;;0.40;0.40;;;;;;;;;;4955246;28;20255;-63
2021/12/17 13:32:54;;;;;;;0.40;0.40;;;;;;;;;;4954582;28;20235;-65
2021/12/17 13:35:21;;;;;;;0.40;0.40;;;;;;;;;;4955783;28;20172;-64
2021/12/17 13:37:52;;;;;;;0.40;0.40;;;;;;;;;;4956184;28;20648;-64
2021/12/17 13:40:21;;;;;;;0.50;0.50;;;;;;;;;;4955081;28;20203;-64
2021/12/17 13:42:47;;;;;;;0.40;0.40;;;;;;;;;;4955730;28;20199;-64
2021/12/17 13:45:14;;;;;;;0.40;0.40;;;;;;;;;;4955789;28;20176;-64
2021/12/17 13:47:45;;;;;;;0.40;0.40;;;;;;;;;;4955605;28;20176;-64
2021/12/17 13:50:13;;;;;;;0.40;0.40;;;;;;;;;;4955190;28;20616;-65
2021/12/17 13:52:46;;;;;;;0.40;0.40;;;;;;;;;;4955645;28;20180;-64
2021/12/17 13:55:14;;;;;;;0.40;0.40;;;;;;;;;;4955560;28;20195;-65
2021/12/17 13:57:41;;;;;;;0.40;0.40;;;;;;;;;;4955506;28;20183;-65
2021/12/17 14:00:21;;;;;;;0.40;0.40;;;;;;;;;;4954925;28;20200;-64
2021/12/17 14:02:48;;;;;;;0.40;0.40;;;;;;;;;;4955318;28;20203;-65
2021/12/17 14:05:19;;;;;;;0.40;0.40;;;;;;;;;;4955319;28;20258;-65
2021/12/17 14:07:49;;;;;;;0.40;0.40;;;;;;;;;;4955268;28;20168;-65
2021/12/17 14:10:17;;;;;;;0.40;0.40;;;;;;;;;;4954438;28;20207;-64
2021/12/17 14:12:43;;;;;;;0.40;0.40;;;;;;;;;;4955131;28;20176;-65
2021/12/17 14:15:11;;;;;;;0.40;0.40;;;;;;;;;;4955182;28;20190;-64
2021/12/17 14:17:43;;;;;;;0.50;0.50;;;;;;;;;;4954117;28;20184;-64
2021/12/17 14:20:26;;;;;;;0.40;0.40;;;;;;;;;;4954532;28;20196;-64
2021/12/17 14:22:55;;;;;;;0.40;0.40;;;;;;;;;;4955024;28;20683;-64
2021/12/17 14:25:26;;;;;;;0.40;0.40;;;;;;;;;;4955025;28;20194;-64
2021/12/17 14:27:53;;;;;;;0.50;0.50;;;;;;;;;;4955167;28;20174;-64
2021/12/17 14:30:38;;;;;;;0.40;0.40;;;;;;;;;;4954423;28;20675;-64
2021/12/17 14:33:08;;;;;;;0.40;0.40;;;;;;;;;;4955062;28;20214;-64
2021/12/17 14:35:43;;;;;;;0.40;0.40;;;;;;;;;;4954742;28;20187;-65
2021/12/17 14:38:09;;;;;;;0.50;0.50;;;;;;;;;;4953804;28;20211;-64
2021/12/17 14:40:45;;;;;;;0.40;0.40;;;;;;;;;;4961715;28;20210;-64
2021/12/17 14:43:21;;;;;;;0.40;0.40;;;;;;;;;;4955102;28;20210;-64
2021/12/17 14:46:03;;;;;;;0.40;0.40;;;;;;;;;;4954889;28;20179;-64
2021/12/17 14:49:13;;;;;;;0.40;0.40;;;;;;;;;;4954821;28;20243;-63
2021/12/17 15:04:37;;;;;;;0.40;0.40;;;;;;;;;;4973500;28;20187;-64
2021/12/17 15:07:03;;;;;;;0.40;0.40;;;;;;;;;;4973622;28;20201;-64
2021/12/17 15:09:32;;;;;;;0.50;0.50;;;;;;;;;;4972964;28;20417;-64
2021/12/17 15:12:00;;;;;;;0.40;0.40;;;;;;;;;;4973185;28;20175;-64
2021/12/17 15:14:26;;;;;;;0.40;0.40;;;;;;;;;;4973466;28;20552;-64
2021/12/17 15:16:53;;;;;;;0.50;0.50;;;;;;;;;;4973298;28;20187;-64
2021/12/17 15:19:19;;;;;;;0.50;0.50;;;;;;;;;;4973196;28;20217;-63
2021/12/17 15:21:45;;;;;;;0.50;0.50;;;;;;;;;;4970909;28;20713;-63
2021/12/17 15:24:11;;;;;;;0.60;0.60;;;;;;;;;;4973133;28;20905;-64
2021/12/17 15:26:37;;;;;;;0.50;0.50;;;;;;;;;;4973228;28;20898;-64
2021/12/17 15:29:03;;;;;;;0.40;0.40;;;;;;;;;;4973210;28;20171;-63
2021/12/17 15:31:29;;;;;;;0.40;0.40;;;;;;;;;;4972452;28;20802;-64
2021/12/17 15:33:55;;;;;;;0.50;0.50;;;;;;;;;;4972770;28;20415;-64
2021/12/17 15:36:21;;;;;;;0.50;0.50;;;;;;;;;;4973134;28;20477;-64
2021/12/17 15:38:47;;;;;;;0.50;0.50;;;;;;;;;;4972938;28;20569;-64
2021/12/17 15:41:12;;;;;;;0.50;0.50;;;;;;;;;;4972290;28;20442;-64
2021/12/17 15:43:38;;;;;;;0.50;0.50;;;;;;;;;;4972930;28;20419;-64
2021/12/17 15:46:04;;;;;;;0.40;0.40;;;;;;;;;;4972399;28;20411;-64
2021/12/17 15:48:31;;;;;;;0.50;0.50;;;;;;;;;;4972309;28;20406;-64
2021/12/17 15:50:57;;;;;;;0.40;0.40;;;;;;;;;;4972131;28;20430;-64
2021/12/17 15:53:22;;;;;;;0.40;0.40;;;;;;;;;;4971564;28;20182;-64
2021/12/17 15:55:49;;;;;;;0.50;0.50;;;;;;;;;;4972691;28;20407;-64
2021/12/17 15:58:15;;;;;;;0.50;0.50;;;;;;;;;;4972735;28;20411;-64
2021/12/17 16:00:41;;;;;;;0.40;0.40;;;;;;;;;;4972031;28;20202;-64
2021/12/17 16:03:08;;;;;;;0.50;0.50;;;;;;;;;;4972546;28;20922;-64
2021/12/17 16:05:35;;;;;;;0.50;0.50;;;;;;;;;;4972731;28;20516;-63
2021/12/17 16:08:02;;;;;;;0.50;0.50;;;;;;;;;;4971529;28;20178;-64
2021/12/17 16:18:47;;;;;;;0.50;0.50;;;;;;;;;;4973035;28;20327;-63
2021/12/17 16:21:13;;;;;;;0.40;0.40;;;;;;;;;;4972187;28;20210;-64
2021/12/17 16:23:46;;;;;;;0.43;0.43;;;;;;;;;;4974458;28;20585;-64
2021/12/17 16:26:13;;;;;;;0.50;0.50;;;;;;;;;;4973304;28;20174;-64
2021/12/17 16:28:44;;;;;;;0.40;0.40;;;;;;;;;;4973168;28;20681;-64
2021/12/17 16:31:12;;;;;;;0.40;0.40;;;;;;;;;;4972195;28;20203;-64
2021/12/17 16:33:39;;;;;;;0.40;0.40;;;;;;;;;;4972935;28;20178;-64
2021/12/17 16:36:06;;;;;;;0.50;0.50;;;;;;;;;;4971427;28;20634;-64
2021/12/17 16:38:32;;;;;;;0.50;0.50;;;;;;;;;;4972596;28;20175;-63
2021/12/17 16:40:59;;;;;;;0.40;0.40;;;;;;;;;;4971848;28;20202;-64
2021/12/17 16:43:25;;;;;;;0.50;0.50;;;;;;;;;;4972641;28;20336;-64
2021/12/17 16:46:04;;;;;;;0.50;0.50;;;;;;;;;;4972448;28;20180;-64
2021/12/17 16:48:31;;;;;;;0.50;0.50;;;;;;;;;;4972593;28;20186;-64
2021/12/17 16:50:57;;;;;;;0.50;0.50;;;;;;;;;;4971576;28;20222;-65
2021/12/17 16:53:23;;;;;;;0.50;0.50;;;;;;;;;;4972223;28;20643;-64
2021/12/17 16:55:50;;;;;;;0.50;0.50;;;;;;;;;;4972428;28;20452;-64
2021/12/17 16:58:16;;;;;;;0.50;0.50;;;;;;;;;;4972669;28;20410;-65
2021/12/17 17:00:42;;;;;;;0.40;0.40;;;;;;;;;;4970910;28;20212;-64
2021/12/17 17:03:08;;;;;;;0.50;0.50;;;;;;;;;;4975859;28;20462;-64
2021/12/17 17:05:34;;;;;;;0.40;0.40;;;;;;;;;;4975686;28;20497;-64
2021/12/17 17:08:00;;;;;;;0.40;0.40;;;;;;;;;;4975938;28;20496;-64
2021/12/17 17:10:33;;;;;;;0.40;0.40;;;;;;;;;;4974973;28;20218;-65
2021/12/17 17:13:02;;;;;;;0.40;0.40;;;;;;;;;;4976031;28;20423;-64
2021/12/17 17:15:28;;;;;;;0.50;0.50;;;;;;;;;;4974364;28;20650;-65
2021/12/17 17:17:56;;;;;;;0.50;0.50;;;;;;;;;;4975828;28;20184;-64
2021/12/17 17:20:22;;;;;;;0.50;0.50;;;;;;;;;;4975251;28;20946;-65
2021/12/17 17:22:48;;;;;;;0.40;0.40;;;;;;;;;;4975439;28;20210;-64
2021/12/17 17:25:13;;;;;;;0.40;0.40;;;;;;;;;;4975495;28;20177;-65
2021/12/17 17:27:40;;;;;;;0.40;0.40;;;;;;;;;;4975719;28;20416;-64
2021/12/17 17:30:06;;;;;;;0.50;0.50;;;;;;;;;;4975099;28;20958;-64
2021/12/17 17:32:35;;;;;;;0.47;0.47;;;;;;;;;;4975524;28;20178;-64
2021/12/17 17:35:02;;;;;;;0.40;0.40;;;;;;;;;;4975464;28;20658;-64
2021/12/17 17:37:31;;;;;;;0.50;0.50;;;;;;;;;;4975821;28;20185;-64
2021/12/17 17:39:57;;;;;;;0.50;0.50;;;;;;;;;;4975465;28;20194;-65
2021/12/17 17:42:23;;;;;;;0.50;0.50;;;;;;;;;;4974777;28;20253;-64
2021/12/17 17:44:49;;;;;;;0.40;0.40;;;;;;;;;;4975129;28;20590;-64
2021/12/17 17:47:19;;;;;;;0.45;0.45;;;;;;;;;;4975182;28;20399;-64
2021/12/17 17:49:44;;;;;;;0.50;0.50;;;;;;;;;;4975208;28;20198;-64